sensor_id;sensor_type;location;lat;lon;timestamp;temperature;humidity
31975;DHT22;18500;43.618;1.474;2023-04-24T08:37:49;13.50;28.60
31975;DHT22;18500;43.618;1.474;2023-04-24T08:40:16;13.70;10.70
31975;DHT22;18500;43.618;1.474;2023-04-24T08:42:43;13.70;1.00
31975;DHT22;18500;43.618;1.474;2023-04-24T08:45:10;13.80;1.00
31975;DHT22;18500;43.618;1.474;2023-04-24T08:47:38;13.90;1.00
31975;DHT22;18500;43.618;1.474;2023-04-24T08:50:04;13.80;1.00
31975;DHT22;18500;43.618;1.474;2023-04-24T08:52:32;13.80;1.00
31975;DHT22;18500;43.618;1.474;2023-04-24T08:55:00;13.70;1.00
31975;DHT22;18500;43.618;1.474;2023-04-24T08:57:26;13.70;1.00
31975;DHT22;18500;43.618;1.474;2023-04-24T08:59:53;14.00;1.00
31975;DHT22;18500;43.618;1.474;2023-04-24T09:02:21;14.20;1.00
31975;DHT22;18500;43.618;1.474;2023-04-24T09:04:47;14.10;1.00
31975;DHT22;18500;43.618;1.474;2023-04-24T09:07:14;13.90;1.00
31975;DHT22;18500;43.618;1.474;2023-04-24T09:09:42;14.30;1.00
31975;DHT22;18500;43.618;1.474;2023-04-24T09:12:08;14.40;1.00
31975;DHT22;18500;43.618;1.474;2023-04-24T09:14:35;14.40;1.00
31975;DHT22;18500;43.618;1.474;2023-04-24T09:17:06;14.30;1.00
31975;DHT22;18500;43.618;1.474;2023-04-24T09:19:31;13.90;1.00
31975;DHT22;18500;43.618;1.474;2023-04-24T09:21:57;13.90;1.00
31975;DHT22;18500;43.618;1.474;2023-04-24T09:24:23;14.30;1.00
31975;DHT22;18500;43.618;1.474;2023-04-24T09:26:55;14.50;1.00
31975;DHT22;18500;43.618;1.474;2023-04-24T09:29:22;14.70;1.00
31975;DHT22;18500;43.618;1.474;2023-04-24T09:31:48;14.80;1.00
31975;DHT22;18500;43.618;1.474;2023-04-24T09:34:13;14.70;1.00
31975;DHT22;18500;43.618;1.474;2023-04-24T09:36:42;14.60;1.00
31975;DHT22;18500;43.618;1.474;2023-04-24T09:39:11;14.80;1.00
31975;DHT22;18500;43.618;1.474;2023-04-24T09:41:54;15.00;1.00
31975;DHT22;18500;43.618;1.474;2023-04-24T09:44:24;14.70;1.00
31975;DHT22;18500;43.618;1.474;2023-04-24T09:46:54;14.90;1.00
31975;DHT22;18500;43.618;1.474;2023-04-24T09:49:31;15.20;1.00
31975;DHT22;18500;43.618;1.474;2023-04-24T09:52:09;15.30;1.00
31975;DHT22;18500;43.618;1.474;2023-04-24T09:54:35;15.30;1.00
31975;DHT22;18500;43.618;1.474;2023-04-24T09:57:02;15.10;1.00
31975;DHT22;18500;43.618;1.474;2023-04-24T09:59:28;15.10;1.00
31975;DHT22;18500;43.618;1.474;2023-04-24T10:01:55;15.60;1.00
31975;DHT22;18500;43.618;1.474;2023-04-24T10:04:26;15.70;1.00
31975;DHT22;18500;43.618;1.474;2023-04-24T10:06:53;16.10;1.00
31975;DHT22;18500;43.618;1.474;2023-04-24T10:09:21;15.80;1.00
31975;DHT22;18500;43.618;1.474;2023-04-24T10:11:48;15.30;1.00
31975;DHT22;18500;43.618;1.474;2023-04-24T10:14:17;15.50;1.00
31975;DHT22;18500;43.618;1.474;2023-04-24T10:16:43;15.80;1.00
31975;DHT22;18500;43.618;1.474;2023-04-24T10:19:10;15.70;1.00
31975;DHT22;18500;43.618;1.474;2023-04-24T10:21:36;16.00;1.00
31975;DHT22;18500;43.618;1.474;2023-04-24T10:24:08;16.20;1.00
31975;DHT22;18500;43.618;1.474;2023-04-24T10:26:35;15.90;1.00
31975;DHT22;18500;43.618;1.474;2023-04-24T10:29:02;15.60;1.00
31975;DHT22;18500;43.618;1.474;2023-04-24T10:31:31;15.90;1.00
31975;DHT22;18500;43.618;1.474;2023-04-24T10:33:58;16.90;1.00
31975;DHT22;18500;43.618;1.474;2023-04-24T10:36:25;17.00;1.00
31975;DHT22;18500;43.618;1.474;2023-04-24T10:38:54;16.90;1.00
31975;DHT22;18500;43.618;1.474;2023-04-24T10:41:21;16.90;1.00
31975;DHT22;18500;43.618;1.474;2023-04-24T10:44:03;16.90;1.00
31975;DHT22;18500;43.618;1.474;2023-04-24T10:46:30;17.30;1.00
31975;DHT22;18500;43.618;1.474;2023-04-24T10:48:56;17.00;1.00
31975;DHT22;18500;43.618;1.474;2023-04-24T10:51:24;17.30;1.00
31975;DHT22;18500;43.618;1.474;2023-04-24T10:53:50;16.90;1.00
31975;DHT22;18500;43.618;1.474;2023-04-24T10:56:17;16.00;1.00
31975;DHT22;18500;43.618;1.474;2023-04-24T10:58:45;15.70;1.00
31975;DHT22;18500;43.618;1.474;2023-04-24T11:01:25;15.60;1.00
31975;DHT22;18500;43.618;1.474;2023-04-24T11:03:58;15.80;1.00
31975;DHT22;18500;43.618;1.474;2023-04-24T11:06:34;16.00;1.00
31975;DHT22;18500;43.618;1.474;2023-04-24T11:09:08;16.10;1.00
31975;DHT22;18500;43.618;1.474;2023-04-24T11:11:37;16.20;1.00
31975;DHT22;18500;43.618;1.474;2023-04-24T11:14:07;16.50;1.00
31975;DHT22;18500;43.618;1.474;2023-04-24T11:19:08;16.40;1.00
31975;DHT22;18500;43.618;1.474;2023-04-24T11:21:59;16.40;1.00
31975;DHT22;18500;43.618;1.474;2023-04-24T11:24:27;16.00;1.00
31975;DHT22;18500;43.618;1.474;2023-04-24T11:26:58;16.00;1.00
31975;DHT22;18500;43.618;1.474;2023-04-24T11:29:48;16.00;1.00
31975;DHT22;18500;43.618;1.474;2023-04-24T11:34:49;15.50;1.00
31975;DHT22;18500;43.618;1.474;2023-04-24T11:37:15;15.60;1.00
31975;DHT22;18500;43.618;1.474;2023-04-24T11:39:41;15.60;1.00
31975;DHT22;18500;43.618;1.474;2023-04-24T11:42:07;15.70;1.00
31975;DHT22;18500;43.618;1.474;2023-04-24T11:44:34;16.20;1.00
31975;DHT22;18500;43.618;1.474;2023-04-24T11:47:04;16.10;1.00
31975;DHT22;18500;43.618;1.474;2023-04-24T11:49:30;16.30;1.00
31975;DHT22;18500;43.618;1.474;2023-04-24T11:51:55;16.70;1.00
31975;DHT22;18500;43.618;1.474;2023-04-24T11:54:21;16.80;1.00
31975;DHT22;18500;43.618;1.474;2023-04-24T11:56:48;16.90;1.00
31975;DHT22;18500;43.618;1.474;2023-04-24T11:59:15;16.80;1.00
31975;DHT22;18500;43.618;1.474;2023-04-24T12:01:47;16.70;1.00
31975;DHT22;18500;43.618;1.474;2023-04-24T12:04:17;16.80;1.00
31975;DHT22;18500;43.618;1.474;2023-04-24T12:07:04;17.00;1.00
31975;DHT22;18500;43.618;1.474;2023-04-24T12:09:57;17.60;1.00
31975;DHT22;18500;43.618;1.474;2023-04-24T12:12:26;17.70;1.00
31975;DHT22;18500;43.618;1.474;2023-04-24T12:14:56;18.00;1.00
31975;DHT22;18500;43.618;1.474;2023-04-24T12:19:52;18.30;1.00
31975;DHT22;18500;43.618;1.474;2023-04-24T12:22:22;18.70;1.00
31975;DHT22;18500;43.618;1.474;2023-04-24T12:25:03;18.00;1.00
31975;DHT22;18500;43.618;1.474;2023-04-24T12:27:33;17.00;1.00
31975;DHT22;18500;43.618;1.474;2023-04-24T12:30:01;16.50;1.00
31975;DHT22;18500;43.618;1.474;2023-04-24T12:32:27;16.30;1.00
31975;DHT22;18500;43.618;1.474;2023-04-24T12:34:54;16.60;1.00
31975;DHT22;18500;43.618;1.474;2023-04-24T12:37:22;17.40;1.00
31975;DHT22;18500;43.618;1.474;2023-04-24T12:40:02;18.50;1.00
31975;DHT22;18500;43.618;1.474;2023-04-24T12:42:30;19.80;1.00
31975;DHT22;18500;43.618;1.474;2023-04-24T12:45:03;23.30;1.00
31975;DHT22;18500;43.618;1.474;2023-04-24T12:47:30;25.10;1.00
31975;DHT22;18500;43.618;1.474;2023-04-24T12:49:56;28.30;1.00
31975;DHT22;18500;43.618;1.474;2023-04-24T12:52:23;27.00;1.00
31975;DHT22;18500;43.618;1.474;2023-04-24T12:54:56;28.40;1.00
31975;DHT22;18500;43.618;1.474;2023-04-24T12:57:27;27.60;1.00
31975;DHT22;18500;43.618;1.474;2023-04-24T12:59:57;26.00;1.00
31975;DHT22;18500;43.618;1.474;2023-04-24T13:02:27;28.40;1.00
31975;DHT22;18500;43.618;1.474;2023-04-24T13:04:53;27.70;1.00
31975;DHT22;18500;43.618;1.474;2023-04-24T13:07:19;27.70;1.00
31975;DHT22;18500;43.618;1.474;2023-04-24T13:09:47;24.60;1.00
31975;DHT22;18500;43.618;1.474;2023-04-24T13:12:12;21.90;1.00
31975;DHT22;18500;43.618;1.474;2023-04-24T13:14:38;20.90;1.00
31975;DHT22;18500;43.618;1.474;2023-04-24T13:17:04;20.60;1.00
31975;DHT22;18500;43.618;1.474;2023-04-24T13:19:38;18.90;1.00
31975;DHT22;18500;43.618;1.474;2023-04-24T13:22:05;18.40;1.00
31975;DHT22;18500;43.618;1.474;2023-04-24T13:24:31;18.60;1.00
31975;DHT22;18500;43.618;1.474;2023-04-24T13:26:57;18.70;1.00
31975;DHT22;18500;43.618;1.474;2023-04-24T13:29:23;18.40;1.00
31975;DHT22;18500;43.618;1.474;2023-04-24T13:31:53;17.80;1.00
31975;DHT22;18500;43.618;1.474;2023-04-24T13:34:25;19.00;1.00
31975;DHT22;18500;43.618;1.474;2023-04-24T13:36:53;19.00;1.00
31975;DHT22;18500;43.618;1.474;2023-04-24T13:39:19;19.90;1.00
31975;DHT22;18500;43.618;1.474;2023-04-24T13:41:45;19.00;1.00
31975;DHT22;18500;43.618;1.474;2023-04-24T13:44:13;20.70;1.00
31975;DHT22;18500;43.618;1.474;2023-04-24T13:46:39;21.10;1.00
31975;DHT22;18500;43.618;1.474;2023-04-24T13:49:04;21.00;1.00
31975;DHT22;18500;43.618;1.474;2023-04-24T13:51:30;20.40;1.00
31975;DHT22;18500;43.618;1.474;2023-04-24T13:53:56;19.90;1.00
31975;DHT22;18500;43.618;1.474;2023-04-24T13:56:22;19.60;1.00
31975;DHT22;18500;43.618;1.474;2023-04-24T13:58:48;19.00;1.00
31975;DHT22;18500;43.618;1.474;2023-04-24T14:01:14;19.10;1.00
31975;DHT22;18500;43.618;1.474;2023-04-24T14:03:41;19.50;1.00
31975;DHT22;18500;43.618;1.474;2023-04-24T14:06:07;19.20;1.00
31975;DHT22;18500;43.618;1.474;2023-04-24T14:08:32;19.60;1.00
31975;DHT22;18500;43.618;1.474;2023-04-24T14:10:58;20.60;1.00
31975;DHT22;18500;43.618;1.474;2023-04-24T14:13:24;19.90;1.00
31975;DHT22;18500;43.618;1.474;2023-04-24T14:15:50;19.50;1.00
31975;DHT22;18500;43.618;1.474;2023-04-24T14:18:17;19.80;1.00
31975;DHT22;18500;43.618;1.474;2023-04-24T14:20:44;19.80;1.00
31975;DHT22;18500;43.618;1.474;2023-04-24T14:23:09;19.40;1.00
31975;DHT22;18500;43.618;1.474;2023-04-24T14:25:35;19.70;1.00
31975;DHT22;18500;43.618;1.474;2023-04-24T14:28:01;19.80;1.00
31975;DHT22;18500;43.618;1.474;2023-04-24T14:30:26;19.30;1.00
31975;DHT22;18500;43.618;1.474;2023-04-24T14:32:52;18.80;1.00
31975;DHT22;18500;43.618;1.474;2023-04-24T14:35:17;18.90;1.00
31975;DHT22;18500;43.618;1.474;2023-04-24T14:37:43;18.50;1.00
31975;DHT22;18500;43.618;1.474;2023-04-24T14:40:09;18.90;1.00
31975;DHT22;18500;43.618;1.474;2023-04-24T14:42:35;19.00;1.00
31975;DHT22;18500;43.618;1.474;2023-04-24T14:45:01;19.10;1.00
31975;DHT22;18500;43.618;1.474;2023-04-24T14:47:27;18.30;1.00
31975;DHT22;18500;43.618;1.474;2023-04-24T14:49:53;18.50;1.00
31975;DHT22;18500;43.618;1.474;2023-04-24T14:52:18;19.10;1.00
31975;DHT22;18500;43.618;1.474;2023-04-24T14:54:44;19.30;1.00
31975;DHT22;18500;43.618;1.474;2023-04-24T14:57:10;19.10;1.00
31975;DHT22;18500;43.618;1.474;2023-04-24T14:59:36;18.70;1.00
31975;DHT22;18500;43.618;1.474;2023-04-24T15:02:01;18.90;1.00
31975;DHT22;18500;43.618;1.474;2023-04-24T15:04:28;18.80;1.00
31975;DHT22;18500;43.618;1.474;2023-04-24T15:06:54;18.50;1.00
31975;DHT22;18500;43.618;1.474;2023-04-24T15:09:21;18.20;1.00
31975;DHT22;18500;43.618;1.474;2023-04-24T15:11:48;18.20;1.00
31975;DHT22;18500;43.618;1.474;2023-04-24T15:14:14;18.40;1.00
31975;DHT22;18500;43.618;1.474;2023-04-24T15:16:40;19.00;1.00
31975;DHT22;18500;43.618;1.474;2023-04-24T15:19:06;19.10;1.00
31975;DHT22;18500;43.618;1.474;2023-04-24T15:21:31;19.10;1.00
31975;DHT22;18500;43.618;1.474;2023-04-24T15:23:58;18.50;1.00
31975;DHT22;18500;43.618;1.474;2023-04-24T15:26:24;18.90;1.00
31975;DHT22;18500;43.618;1.474;2023-04-24T15:28:51;19.20;1.00
31975;DHT22;18500;43.618;1.474;2023-04-24T15:31:17;19.40;1.00
31975;DHT22;18500;43.618;1.474;2023-04-24T15:33:43;19.30;1.00
31975;DHT22;18500;43.618;1.474;2023-04-24T15:36:09;19.20;1.00
31975;DHT22;18500;43.618;1.474;2023-04-24T15:38:35;19.10;1.00
31975;DHT22;18500;43.618;1.474;2023-04-24T15:41:01;19.10;1.00
31975;DHT22;18500;43.618;1.474;2023-04-24T15:43:27;18.70;1.00
31975;DHT22;18500;43.618;1.474;2023-04-24T15:45:56;19.00;1.00
31975;DHT22;18500;43.618;1.474;2023-04-24T15:48:22;19.30;1.00
31975;DHT22;18500;43.618;1.474;2023-04-24T15:50:47;18.70;1.00
31975;DHT22;18500;43.618;1.474;2023-04-24T15:53:13;18.20;1.00
31975;DHT22;18500;43.618;1.474;2023-04-24T15:55:52;18.30;1.00
31975;DHT22;18500;43.618;1.474;2023-04-24T15:58:18;18.00;1.00
31975;DHT22;18500;43.618;1.474;2023-04-24T16:00:44;17.90;1.00
31975;DHT22;18500;43.618;1.474;2023-04-24T16:03:10;17.80;1.00
31975;DHT22;18500;43.618;1.474;2023-04-24T16:05:36;17.60;1.00
31975;DHT22;18500;43.618;1.474;2023-04-24T16:08:02;17.50;1.00
31975;DHT22;18500;43.618;1.474;2023-04-24T16:10:28;17.50;1.00
31975;DHT22;18500;43.618;1.474;2023-04-24T16:12:53;17.60;1.00
31975;DHT22;18500;43.618;1.474;2023-04-24T16:15:19;17.70;1.00
31975;DHT22;18500;43.618;1.474;2023-04-24T16:17:47;17.80;1.00
31975;DHT22;18500;43.618;1.474;2023-04-24T16:20:13;17.70;1.00
31975;DHT22;18500;43.618;1.474;2023-04-24T16:22:39;17.60;1.00
31975;DHT22;18500;43.618;1.474;2023-04-24T16:25:08;17.40;1.00
31975;DHT22;18500;43.618;1.474;2023-04-24T16:27:34;17.50;1.00
31975;DHT22;18500;43.618;1.474;2023-04-24T16:30:01;17.40;1.00
31975;DHT22;18500;43.618;1.474;2023-04-24T16:32:26;17.40;1.00
31975;DHT22;18500;43.618;1.474;2023-04-24T16:34:52;17.10;1.00
31975;DHT22;18500;43.618;1.474;2023-04-24T16:37:18;17.20;1.00
31975;DHT22;18500;43.618;1.474;2023-04-24T16:39:44;17.00;1.00
31975;DHT22;18500;43.618;1.474;2023-04-24T16:42:11;16.90;1.00
31975;DHT22;18500;43.618;1.474;2023-04-24T16:44:43;16.70;1.00
31975;DHT22;18500;43.618;1.474;2023-04-24T16:47:09;16.70;1.00
31975;DHT22;18500;43.618;1.474;2023-04-24T16:49:41;16.80;1.00
31975;DHT22;18500;43.618;1.474;2023-04-24T16:52:09;17.00;1.00
31975;DHT22;18500;43.618;1.474;2023-04-24T16:54:34;17.00;1.00
31975;DHT22;18500;43.618;1.474;2023-04-24T16:57:01;17.00;1.00
31975;DHT22;18500;43.618;1.474;2023-04-24T16:59:28;17.10;1.00
31975;DHT22;18500;43.618;1.474;2023-04-24T17:01:53;17.00;1.00
31975;DHT22;18500;43.618;1.474;2023-04-24T17:04:19;16.80;1.00
31975;DHT22;18500;43.618;1.474;2023-04-24T17:06:45;16.90;1.00
31975;DHT22;18500;43.618;1.474;2023-04-24T17:09:11;16.80;1.00
31975;DHT22;18500;43.618;1.474;2023-04-24T17:11:40;16.90;1.00
31975;DHT22;18500;43.618;1.474;2023-04-24T17:14:07;16.70;1.00
31975;DHT22;18500;43.618;1.474;2023-04-24T17:16:33;16.70;1.00
31975;DHT22;18500;43.618;1.474;2023-04-24T17:18:59;16.80;1.00
31975;DHT22;18500;43.618;1.474;2023-04-24T17:21:25;16.80;1.00
31975;DHT22;18500;43.618;1.474;2023-04-24T17:23:51;16.80;1.00
31975;DHT22;18500;43.618;1.474;2023-04-24T17:26:16;16.70;1.00
31975;DHT22;18500;43.618;1.474;2023-04-24T17:28:42;16.70;1.00
31975;DHT22;18500;43.618;1.474;2023-04-24T17:31:08;16.50;1.00
31975;DHT22;18500;43.618;1.474;2023-04-24T17:33:33;16.50;1.00
31975;DHT22;18500;43.618;1.474;2023-04-24T17:35:59;16.50;1.00
31975;DHT22;18500;43.618;1.474;2023-04-24T17:38:29;16.40;1.00
31975;DHT22;18500;43.618;1.474;2023-04-24T17:40:55;16.40;1.00
31975;DHT22;18500;43.618;1.474;2023-04-24T17:43:21;16.30;1.00
31975;DHT22;18500;43.618;1.474;2023-04-24T17:45:49;16.30;1.00
31975;DHT22;18500;43.618;1.474;2023-04-24T17:48:16;16.20;1.00
31975;DHT22;18500;43.618;1.474;2023-04-24T17:50:43;16.20;1.00
31975;DHT22;18500;43.618;1.474;2023-04-24T17:53:09;16.30;1.00
31975;DHT22;18500;43.618;1.474;2023-04-24T17:55:38;16.20;1.00
31975;DHT22;18500;43.618;1.474;2023-04-24T17:58:04;16.20;1.00
31975;DHT22;18500;43.618;1.474;2023-04-24T18:00:31;16.20;1.00
31975;DHT22;18500;43.618;1.474;2023-04-24T18:02:57;16.20;1.00
31975;DHT22;18500;43.618;1.474;2023-04-24T18:05:30;16.20;1.00
31975;DHT22;18500;43.618;1.474;2023-04-24T18:07:56;16.20;1.00
31975;DHT22;18500;43.618;1.474;2023-04-24T18:10:24;16.10;1.00
31975;DHT22;18500;43.618;1.474;2023-04-24T18:12:50;16.20;1.00
31975;DHT22;18500;43.618;1.474;2023-04-24T18:15:16;16.10;1.00
31975;DHT22;18500;43.618;1.474;2023-04-24T18:17:42;16.20;1.00
31975;DHT22;18500;43.618;1.474;2023-04-24T18:20:08;16.20;1.00
31975;DHT22;18500;43.618;1.474;2023-04-24T18:22:35;16.20;1.00
31975;DHT22;18500;43.618;1.474;2023-04-24T18:25:01;16.10;1.00
31975;DHT22;18500;43.618;1.474;2023-04-24T18:27:27;16.10;1.00
31975;DHT22;18500;43.618;1.474;2023-04-24T18:29:56;16.00;1.00
31975;DHT22;18500;43.618;1.474;2023-04-24T18:32:21;16.00;1.00
31975;DHT22;18500;43.618;1.474;2023-04-24T18:34:49;16.00;1.00
31975;DHT22;18500;43.618;1.474;2023-04-24T18:37:15;16.00;1.00
31975;DHT22;18500;43.618;1.474;2023-04-24T18:39:41;16.00;1.00
31975;DHT22;18500;43.618;1.474;2023-04-24T18:42:06;15.90;1.00
31975;DHT22;18500;43.618;1.474;2023-04-24T18:44:32;15.90;1.00
31975;DHT22;18500;43.618;1.474;2023-04-24T18:46:58;15.90;1.00
31975;DHT22;18500;43.618;1.474;2023-04-24T18:49:24;15.90;1.00
31975;DHT22;18500;43.618;1.474;2023-04-24T18:51:50;15.90;1.00
31975;DHT22;18500;43.618;1.474;2023-04-24T18:54:16;15.90;1.00
31975;DHT22;18500;43.618;1.474;2023-04-24T18:56:42;15.80;1.00
31975;DHT22;18500;43.618;1.474;2023-04-24T18:59:07;15.80;1.00
31975;DHT22;18500;43.618;1.474;2023-04-24T19:01:33;15.80;1.00
31975;DHT22;18500;43.618;1.474;2023-04-24T19:04:00;15.80;1.00
31975;DHT22;18500;43.618;1.474;2023-04-24T19:06:25;15.70;1.00
31975;DHT22;18500;43.618;1.474;2023-04-24T19:08:51;15.70;1.00
31975;DHT22;18500;43.618;1.474;2023-04-24T19:11:17;15.70;1.00
31975;DHT22;18500;43.618;1.474;2023-04-24T19:13:42;15.70;1.00
31975;DHT22;18500;43.618;1.474;2023-04-24T19:16:08;15.60;1.00
31975;DHT22;18500;43.618;1.474;2023-04-24T19:18:34;15.70;1.00
31975;DHT22;18500;43.618;1.474;2023-04-24T19:20:59;15.70;1.00
31975;DHT22;18500;43.618;1.474;2023-04-24T19:23:25;15.60;1.00
31975;DHT22;18500;43.618;1.474;2023-04-24T19:25:52;15.60;1.00
31975;DHT22;18500;43.618;1.474;2023-04-24T19:28:17;15.60;1.00
31975;DHT22;18500;43.618;1.474;2023-04-24T19:30:44;15.60;1.00
31975;DHT22;18500;43.618;1.474;2023-04-24T19:33:10;15.50;1.00
31975;DHT22;18500;43.618;1.474;2023-04-24T19:35:36;15.50;1.00
31975;DHT22;18500;43.618;1.474;2023-04-24T19:38:03;15.40;1.00
31975;DHT22;18500;43.618;1.474;2023-04-24T19:40:29;15.40;1.00
31975;DHT22;18500;43.618;1.474;2023-04-24T19:42:55;15.40;1.00
31975;DHT22;18500;43.618;1.474;2023-04-24T19:45:21;15.30;1.00
31975;DHT22;18500;43.618;1.474;2023-04-24T19:47:47;15.30;1.00
31975;DHT22;18500;43.618;1.474;2023-04-24T19:50:13;15.30;1.00
31975;DHT22;18500;43.618;1.474;2023-04-24T19:52:39;14.90;1.00
31975;DHT22;18500;43.618;1.474;2023-04-24T19:55:06;14.70;1.00
31975;DHT22;18500;43.618;1.474;2023-04-24T19:57:32;14.70;1.00
31975;DHT22;18500;43.618;1.474;2023-04-24T19:59:58;14.80;1.00
31975;DHT22;18500;43.618;1.474;2023-04-24T20:02:24;14.70;1.00
31975;DHT22;18500;43.618;1.474;2023-04-24T20:04:49;14.60;1.00
31975;DHT22;18500;43.618;1.474;2023-04-24T20:07:15;14.50;1.00
31975;DHT22;18500;43.618;1.474;2023-04-24T20:09:41;14.50;1.00
31975;DHT22;18500;43.618;1.474;2023-04-24T20:12:06;14.40;1.00
31975;DHT22;18500;43.618;1.474;2023-04-24T20:14:32;14.40;1.00
31975;DHT22;18500;43.618;1.474;2023-04-24T20:16:58;14.40;1.00
31975;DHT22;18500;43.618;1.474;2023-04-24T20:19:23;14.40;1.00
31975;DHT22;18500;43.618;1.474;2023-04-24T20:21:49;14.30;1.00
31975;DHT22;18500;43.618;1.474;2023-04-24T20:24:15;14.20;1.00
31975;DHT22;18500;43.618;1.474;2023-04-24T20:26:41;14.00;1.00
31975;DHT22;18500;43.618;1.474;2023-04-24T20:29:06;13.80;1.00
31975;DHT22;18500;43.618;1.474;2023-04-24T20:31:33;13.80;1.00
31975;DHT22;18500;43.618;1.474;2023-04-24T20:33:59;13.70;1.00
31975;DHT22;18500;43.618;1.474;2023-04-24T20:36:25;13.70;99.90
31975;DHT22;18500;43.618;1.474;2023-04-24T20:38:51;13.50;1.00
31975;DHT22;18500;43.618;1.474;2023-04-24T20:41:18;13.60;99.90
31975;DHT22;18500;43.618;1.474;2023-04-24T20:43:43;13.60;94.70
31975;DHT22;18500;43.618;1.474;2023-04-24T20:46:10;13.60;1.00
